createdAt,value
2022-12-05T00:02:11.874Z,39.97
2022-12-05T00:04:38.879Z,39.17
2022-12-05T00:07:05.839Z,38.00
2022-12-05T00:09:34.500Z,40.17
2022-12-05T00:12:01.467Z,39.03
2022-12-05T00:14:31.322Z,36.45
2022-12-05T00:17:01.485Z,39.83
2022-12-05T00:19:28.452Z,39.47
2022-12-05T00:21:55.345Z,36.63
2022-12-05T00:24:22.229Z,35.70
2022-12-05T00:26:49.239Z,36.45
2022-12-05T00:29:16.092Z,35.88
2022-12-05T00:31:44.148Z,35.70
2022-12-05T00:34:11.218Z,34.25
2022-12-05T00:36:38.313Z,34.25
2022-12-05T00:39:11.908Z,34.65
2022-12-05T00:41:39.896Z,31.23
2022-12-05T00:44:07.094Z,33.20
2022-12-05T00:46:35.463Z,33.20
2022-12-05T00:49:04.107Z,33.35
2022-12-05T00:51:37.368Z,31.75
2022-12-05T00:54:08.094Z,31.58
2022-12-05T00:56:35.392Z,30.17
2022-12-05T00:59:03.416Z,30.08
2022-12-05T01:01:33.672Z,30.85
2022-12-05T01:04:10.752Z,29.90
2022-12-05T01:06:37.649Z,30.75
2022-12-05T01:09:07.016Z,29.85
2022-12-05T01:11:40.716Z,30.63
2022-12-05T01:14:08.848Z,29.30
2022-12-05T01:16:37.440Z,30.30
2022-12-05T01:19:13.478Z,30.02
2022-12-05T01:21:40.975Z,29.20
2022-12-05T01:24:08.916Z,28.67
2022-12-05T01:26:35.737Z,29.85
2022-12-05T01:29:03.845Z,29.85
2022-12-05T01:31:33.971Z,29.38
2022-12-05T01:34:03.669Z,28.85
2022-12-05T01:36:32.123Z,28.25
2022-12-05T01:39:02.271Z,29.58
2022-12-05T01:41:37.059Z,28.55
2022-12-05T01:44:28.250Z,29.67
2022-12-05T01:46:56.124Z,29.08
2022-12-05T01:49:31.506Z,29.23
2022-12-05T01:52:02.564Z,28.95
2022-12-05T01:54:30.107Z,28.80
2022-12-05T01:57:05.077Z,28.50
2022-12-05T01:59:35.938Z,28.50
2022-12-05T02:02:04.362Z,31.08
2022-12-05T02:04:38.985Z,32.65
2022-12-05T02:07:05.910Z,32.30
2022-12-05T02:09:33.749Z,32.03
2022-12-05T02:12:05.493Z,32.95
2022-12-05T02:14:51.913Z,34.17
2022-12-05T02:17:30.648Z,33.45
2022-12-05T02:20:07.387Z,34.22
2022-12-05T02:22:42.000Z,35.50
2022-12-05T02:25:22.587Z,34.17
2022-12-05T02:28:04.851Z,34.88
2022-12-05T02:30:41.062Z,36.25
2022-12-05T02:33:18.987Z,35.55
2022-12-05T02:36:03.917Z,35.28
2022-12-05T02:38:40.988Z,35.22
2022-12-05T02:41:36.670Z,35.03
2022-12-05T02:44:24.888Z,35.83
2022-12-05T02:46:53.985Z,36.42
2022-12-05T02:49:25.332Z,35.92
2022-12-05T02:51:58.218Z,36.53
2022-12-05T02:54:29.101Z,36.97
2022-12-05T02:56:58.926Z,36.65
2022-12-05T02:59:26.224Z,37.63
2022-12-05T03:01:53.517Z,36.08
2022-12-05T03:04:24.249Z,38.38
2022-12-05T03:07:15.527Z,38.13
2022-12-05T03:09:49.393Z,35.95
2022-12-05T03:12:27.110Z,37.20
2022-12-05T03:15:00.732Z,37.30
2022-12-05T03:17:35.587Z,36.75
2022-12-05T03:20:14.303Z,37.90
2022-12-05T03:22:57.348Z,36.90
2022-12-05T03:27:58.260Z,34.38
2022-12-05T03:30:25.660Z,35.42
2022-12-05T03:32:59.570Z,34.55
2022-12-05T03:35:40.072Z,36.35
2022-12-05T03:38:07.176Z,35.10
2022-12-05T03:40:40.497Z,32.60
2022-12-05T03:43:10.379Z,32.72
2022-12-05T03:45:51.767Z,33.60
2022-12-05T03:48:42.815Z,34.33
2022-12-05T03:51:12.892Z,31.65
2022-12-05T03:53:54.045Z,32.85
2022-12-05T03:56:28.144Z,32.00
2022-12-05T03:59:05.448Z,32.47
2022-12-05T04:01:34.654Z,30.75
2022-12-05T04:04:09.564Z,33.50
2022-12-05T04:06:41.209Z,30.58
2022-12-05T04:09:17.096Z,31.65
2022-12-05T04:11:51.885Z,30.05
2022-12-05T04:14:30.509Z,30.73
2022-12-05T04:17:03.370Z,31.10
2022-12-05T04:20:01.121Z,30.27
2022-12-05T04:22:29.670Z,30.38
2022-12-05T04:25:18.173Z,30.58
2022-12-05T04:28:09.198Z,31.05
2022-12-05T04:31:04.956Z,32.63
2022-12-05T04:33:37.574Z,31.90
2022-12-05T04:36:13.718Z,33.00
2022-12-05T04:38:59.138Z,32.17
2022-12-05T04:41:34.141Z,30.80
2022-12-05T04:44:07.009Z,31.48
2022-12-05T04:46:35.554Z,30.95
2022-12-05T04:49:05.925Z,29.70
2022-12-05T04:51:35.675Z,31.05
2022-12-05T04:54:08.478Z,29.63
2022-12-05T04:56:39.359Z,28.88
2022-12-05T04:59:07.262Z,28.65
2022-12-05T05:01:51.859Z,29.40
2022-12-05T05:04:25.972Z,28.67
2022-12-05T05:06:53.127Z,28.42
2022-12-05T05:09:19.929Z,29.77
2022-12-05T05:11:46.873Z,29.90
2022-12-05T05:14:13.681Z,29.38
2022-12-05T05:16:42.234Z,31.73
2022-12-05T05:19:11.141Z,30.95
2022-12-05T05:21:40.345Z,32.33
2022-12-05T05:24:09.451Z,29.30
2022-12-05T05:26:41.571Z,31.48
2022-12-05T05:29:09.734Z,34.08
2022-12-05T05:31:38.958Z,31.50
2022-12-05T05:34:09.748Z,31.92
2022-12-05T05:36:38.725Z,32.60
2022-12-05T05:39:09.254Z,31.38
2022-12-05T05:41:37.180Z,32.10
2022-12-05T05:44:04.779Z,31.65
2022-12-05T05:46:34.303Z,33.10
2022-12-05T05:49:01.197Z,33.95
2022-12-05T05:51:30.354Z,34.50
2022-12-05T05:53:58.906Z,32.03
2022-12-05T05:56:26.319Z,32.90
2022-12-05T05:58:59.037Z,32.50
2022-12-05T06:03:52.976Z,32.45
2022-12-05T06:06:23.663Z,32.95
2022-12-05T06:08:51.537Z,35.20
2022-12-05T06:11:26.131Z,33.53
2022-12-05T06:13:58.703Z,33.78
2022-12-05T06:16:25.775Z,34.08
2022-12-05T06:18:53.517Z,33.65
2022-12-05T06:21:21.730Z,34.50
2022-12-05T06:23:48.848Z,32.65
2022-12-05T06:26:18.344Z,32.88
2022-12-05T06:28:45.821Z,32.20
2022-12-05T06:31:19.078Z,32.28
2022-12-05T06:33:46.498Z,30.83
2022-12-05T06:36:16.591Z,31.77
2022-12-05T06:38:43.448Z,30.63
2022-12-05T06:41:14.199Z,31.55
2022-12-05T06:43:41.490Z,34.95
2022-12-05T06:46:10.645Z,31.05
2022-12-05T06:48:37.765Z,29.95
2022-12-05T06:51:04.806Z,30.52
2022-12-05T06:53:31.735Z,30.63
2022-12-05T06:56:01.176Z,38.15
2022-12-05T06:58:29.887Z,29.60
2022-12-05T07:01:17.132Z,30.88
2022-12-05T07:03:44.607Z,31.77
2022-12-05T07:06:46.192Z,29.90
2022-12-05T07:09:20.009Z,30.70
2022-12-05T07:11:51.437Z,30.65
2022-12-05T07:17:08.789Z,31.40
2022-12-05T07:19:36.844Z,29.90
2022-12-05T07:22:04.973Z,30.90
2022-12-05T07:24:34.932Z,31.80
2022-12-05T07:27:03.128Z,30.27
2022-12-05T07:29:30.223Z,31.50
2022-12-05T07:31:57.357Z,30.98
2022-12-05T07:34:25.371Z,30.50
2022-12-05T07:36:53.254Z,30.38
2022-12-05T07:39:23.532Z,29.20
2022-12-05T07:41:51.267Z,31.42
2022-12-05T07:44:22.287Z,30.95
2022-12-05T07:46:49.829Z,30.63
2022-12-05T07:49:17.234Z,30.70
2022-12-05T07:51:45.458Z,30.23
2022-12-05T07:54:13.742Z,30.77
2022-12-05T07:56:47.414Z,30.35
2022-12-05T07:59:15.082Z,31.02
2022-12-05T08:01:43.604Z,29.73
2022-12-05T08:04:15.303Z,30.23
2022-12-05T08:06:43.816Z,29.90
2022-12-05T08:09:11.877Z,29.58
2022-12-05T08:11:40.045Z,29.77
2022-12-05T08:14:07.531Z,30.00
2022-12-05T08:16:35.953Z,31.60
2022-12-05T08:19:10.453Z,30.20
2022-12-05T08:21:38.803Z,30.42
2022-12-05T08:24:08.166Z,29.33
2022-12-05T08:26:38.926Z,29.73
2022-12-05T08:29:12.429Z,29.80
2022-12-05T08:32:02.631Z,30.45
2022-12-05T08:34:29.631Z,29.08
2022-12-05T08:36:56.567Z,31.05
2022-12-05T08:39:23.605Z,27.15
2022-12-05T08:41:51.618Z,26.58
2022-12-05T08:44:19.589Z,26.95
2022-12-05T08:46:48.637Z,27.75
2022-12-05T08:49:17.835Z,26.80
2022-12-05T08:51:45.625Z,26.38
2022-12-05T08:54:13.873Z,26.83
2022-12-05T08:56:43.439Z,26.30
2022-12-05T08:59:11.944Z,25.08
2022-12-05T09:01:40.728Z,24.15
2022-12-05T09:04:08.796Z,25.17
2022-12-05T09:06:39.737Z,24.70
2022-12-05T09:09:09.442Z,24.35
2022-12-05T09:14:39.186Z,22.77
2022-12-05T09:17:12.193Z,23.80
2022-12-05T09:19:43.072Z,23.63
2022-12-05T09:22:11.722Z,23.48
2022-12-05T09:25:02.288Z,23.65
2022-12-05T09:27:31.213Z,22.13
2022-12-05T09:29:59.247Z,22.33
2022-12-05T09:32:28.384Z,22.58
2022-12-05T09:34:58.938Z,22.60
2022-12-05T09:37:40.134Z,21.08
2022-12-05T09:40:17.972Z,22.27
2022-12-05T09:43:07.905Z,20.90
2022-12-05T09:45:49.235Z,19.92
2022-12-05T09:48:21.364Z,20.80
2022-12-05T09:50:57.361Z,19.90
2022-12-05T09:53:36.901Z,19.13
2022-12-05T09:56:13.972Z,20.05
2022-12-05T09:58:57.700Z,22.25
2022-12-05T10:01:42.643Z,18.63
2022-12-05T10:05:06.612Z,19.00
2022-12-05T10:07:57.416Z,17.10
2022-12-05T10:10:45.366Z,17.67
2022-12-05T10:13:33.185Z,16.95
2022-12-05T10:16:14.066Z,16.80
2022-12-05T10:18:52.698Z,16.50
2022-12-05T10:21:49.797Z,17.10
2022-12-05T10:24:56.043Z,17.23
2022-12-05T10:27:42.932Z,16.95
2022-12-05T10:30:23.011Z,15.98
2022-12-05T10:33:08.010Z,16.42
2022-12-05T10:35:44.371Z,14.43
2022-12-05T10:38:31.555Z,15.93
2022-12-05T10:41:05.561Z,16.30
2022-12-05T10:43:38.275Z,16.52
2022-12-05T10:46:15.470Z,16.27
2022-12-05T10:48:54.575Z,16.02
2022-12-05T10:51:31.323Z,16.02
2022-12-05T10:54:13.552Z,16.17
2022-12-05T10:56:52.777Z,14.70
2022-12-05T10:59:25.855Z,15.55
2022-12-05T11:01:55.032Z,15.60
2022-12-05T11:04:41.350Z,16.40
2022-12-05T11:07:30.099Z,16.52
2022-12-05T11:10:05.052Z,15.65
2022-12-05T11:12:37.141Z,16.15
2022-12-05T11:15:19.424Z,16.05
2022-12-05T11:20:20.909Z,16.48
2022-12-05T11:22:50.943Z,15.90
2022-12-05T11:25:26.476Z,16.15
2022-12-05T11:27:59.762Z,14.43
2022-12-05T11:30:29.854Z,16.52
2022-12-05T11:33:21.417Z,15.00
2022-12-05T11:35:52.145Z,14.93
2022-12-05T11:38:27.476Z,14.57
2022-12-05T11:41:41.839Z,14.60
2022-12-05T11:44:24.914Z,15.32
2022-12-05T11:47:07.362Z,15.13
2022-12-05T11:49:41.722Z,13.45
2022-12-05T11:52:19.637Z,13.95
2022-12-05T11:55:06.117Z,12.70
2022-12-05T11:57:52.086Z,12.52
2022-12-05T12:00:25.700Z,14.40
2022-12-05T12:03:23.134Z,14.23
2022-12-05T12:06:06.176Z,13.98
2022-12-05T12:08:51.468Z,13.98
2022-12-05T12:15:30.153Z,12.75
2022-12-05T12:18:59.395Z,12.10
2022-12-05T12:21:53.697Z,12.60
2022-12-05T12:24:36.342Z,12.35
2022-12-05T12:27:37.698Z,13.93
2022-12-05T12:30:49.558Z,14.32
2022-12-05T12:33:40.281Z,14.75
2022-12-05T12:36:26.552Z,15.73
2022-12-05T12:39:38.174Z,14.85
2022-12-05T12:42:31.268Z,15.57
2022-12-05T12:45:24.787Z,15.65
2022-12-05T12:48:07.694Z,16.58
2022-12-05T12:50:44.282Z,17.13
2022-12-05T12:53:46.069Z,17.85
2022-12-05T12:56:40.149Z,16.83
2022-12-05T12:59:12.024Z,16.25
2022-12-05T13:01:54.993Z,16.37
2022-12-05T13:04:42.024Z,17.90
2022-12-05T13:07:23.018Z,17.65
2022-12-05T13:10:03.486Z,17.25
2022-12-05T13:12:35.251Z,18.35
2022-12-05T13:15:44.591Z,17.75
2022-12-05T13:18:17.678Z,16.50
2022-12-05T13:20:51.738Z,17.33
2022-12-05T13:28:35.422Z,18.30
2022-12-05T13:31:07.634Z,18.80
2022-12-05T13:33:50.820Z,16.48
2022-12-05T13:36:40.994Z,15.93
2022-12-05T13:39:38.145Z,15.95
2022-12-05T13:42:13.093Z,14.43
2022-12-05T13:44:57.048Z,14.63
2022-12-05T13:47:45.938Z,15.52
2022-12-05T13:50:39.215Z,15.93
2022-12-05T13:53:26.022Z,16.38
2022-12-05T13:56:14.728Z,14.70
2022-12-05T13:58:49.041Z,15.13
2022-12-05T14:01:36.981Z,14.88
2022-12-05T14:04:48.107Z,15.07
2022-12-05T14:07:38.803Z,15.05
2022-12-05T14:13:35.807Z,15.73
2022-12-05T14:16:23.582Z,16.27
2022-12-05T14:19:16.520Z,16.33
2022-12-05T14:22:15.062Z,16.27
2022-12-05T14:25:23.251Z,16.75
2022-12-05T14:28:17.565Z,16.65
2022-12-05T14:31:20.802Z,16.67
2022-12-05T14:34:32.025Z,16.20
2022-12-05T14:38:05.434Z,16.27
2022-12-05T14:41:32.342Z,15.57
2022-12-05T14:45:01.485Z,15.75
2022-12-05T14:47:34.289Z,15.80
2022-12-05T14:54:18.029Z,16.38
2022-12-05T15:00:21.478Z,15.65
2022-12-05T15:06:07.843Z,16.05
2022-12-05T15:08:55.082Z,17.95
2022-12-05T15:11:38.984Z,17.20
2022-12-05T15:14:38.823Z,19.50
2022-12-05T15:17:23.241Z,21.35
2022-12-05T15:20:10.071Z,24.33
2022-12-05T15:23:28.212Z,24.52
2022-12-05T15:26:56.839Z,24.13
2022-12-05T15:29:46.306Z,23.02
2022-12-05T15:32:23.871Z,24.50
2022-12-05T15:35:15.347Z,25.75
2022-12-05T15:37:55.900Z,25.73
2022-12-05T15:40:34.036Z,25.10
2022-12-05T15:43:26.774Z,26.67
2022-12-05T15:46:31.291Z,26.85
2022-12-05T15:49:37.462Z,27.38
2022-12-05T15:53:17.742Z,28.33
2022-12-05T15:56:35.425Z,28.70
2022-12-05T16:02:13.089Z,30.35
2022-12-05T16:04:54.345Z,30.55
2022-12-05T16:07:31.035Z,31.58
2022-12-05T16:10:14.350Z,30.80
2022-12-05T16:16:31.896Z,34.88
2022-12-05T16:19:08.008Z,33.65
2022-12-05T16:21:42.229Z,33.15
2022-12-05T16:24:24.933Z,33.88
2022-12-05T16:27:01.184Z,33.33
2022-12-05T16:29:42.070Z,34.15
2022-12-05T16:36:02.235Z,34.67
2022-12-05T16:38:50.134Z,35.92
2022-12-05T16:42:24.198Z,34.03
2022-12-05T16:45:05.907Z,36.60
2022-12-05T16:48:07.541Z,38.10
2022-12-05T16:50:49.174Z,35.63
2022-12-05T16:53:33.071Z,36.22
2022-12-05T16:56:01.246Z,35.80
2022-12-05T16:58:35.430Z,36.40
2022-12-05T17:04:32.100Z,35.45
2022-12-05T17:07:19.792Z,36.72
2022-12-05T17:09:49.842Z,35.40
2022-12-05T17:12:25.440Z,38.03
2022-12-05T17:14:57.451Z,38.47
2022-12-05T17:17:24.629Z,36.70
2022-12-05T17:19:51.892Z,39.38
2022-12-05T17:22:46.910Z,39.88
2022-12-05T17:25:43.851Z,39.38
2022-12-05T17:28:42.463Z,37.78
2022-12-05T17:31:22.148Z,38.03
2022-12-05T17:33:59.245Z,38.28
2022-12-05T17:40:29.949Z,39.08
2022-12-05T17:43:29.136Z,38.65
2022-12-05T17:46:03.575Z,39.40
2022-12-05T17:48:45.347Z,39.22
2022-12-05T17:52:05.636Z,37.15
2022-12-05T17:54:39.163Z,35.00
2022-12-05T17:57:07.681Z,34.70
2022-12-05T18:00:16.628Z,33.97
2022-12-05T18:05:46.800Z,33.00
2022-12-05T18:08:24.570Z,33.22
2022-12-05T18:10:53.494Z,34.72
2022-12-05T18:13:21.404Z,35.35
2022-12-05T18:15:49.154Z,36.40
2022-12-05T18:18:18.602Z,35.92
2022-12-05T18:20:45.626Z,37.75
2022-12-05T18:23:12.657Z,35.42
2022-12-05T18:25:41.881Z,33.30
2022-12-05T18:28:10.185Z,35.10
2022-12-05T18:30:38.336Z,34.40
2022-12-05T18:33:06.193Z,34.08
2022-12-05T18:35:40.728Z,35.33
2022-12-05T18:38:10.118Z,35.55
2022-12-05T18:40:37.022Z,35.38
2022-12-05T18:43:04.070Z,34.03
2022-12-05T18:45:35.978Z,36.20
2022-12-05T18:50:54.163Z,34.55
2022-12-05T18:53:21.096Z,32.13
2022-12-05T18:56:23.742Z,33.50
2022-12-05T18:59:06.484Z,34.83
2022-12-05T19:01:39.141Z,34.67
2022-12-05T19:04:13.155Z,35.85
2022-12-05T19:06:46.236Z,36.05
2022-12-05T19:09:18.935Z,35.05
2022-12-05T19:14:17.719Z,34.97
2022-12-05T19:16:45.824Z,35.65
2022-12-05T19:19:14.779Z,35.25
2022-12-05T19:21:50.754Z,35.92
2022-12-05T19:24:20.231Z,36.70
2022-12-05T19:26:50.143Z,36.45
2022-12-05T19:32:05.444Z,35.42
2022-12-05T19:34:35.114Z,35.55
2022-12-05T19:37:40.335Z,34.60
2022-12-05T19:40:20.338Z,34.50
2022-12-05T19:42:49.455Z,34.03
2022-12-05T19:45:23.639Z,34.35
2022-12-05T19:48:00.828Z,31.15
2022-12-05T19:50:38.567Z,33.47
2022-12-05T19:53:35.381Z,32.83
2022-12-05T19:56:15.456Z,31.52
2022-12-05T19:58:52.704Z,30.80
2022-12-05T20:01:31.343Z,34.13
2022-12-05T20:04:09.691Z,31.23
2022-12-05T20:06:40.430Z,31.45
2022-12-05T20:09:09.143Z,29.45
2022-12-05T20:11:39.142Z,29.25
2022-12-05T20:14:07.118Z,32.08
2022-12-05T20:16:40.925Z,30.45
2022-12-05T20:19:08.567Z,31.40
2022-12-05T20:21:37.539Z,32.20
2022-12-05T20:24:06.243Z,33.10
2022-12-05T20:26:38.393Z,32.88
2022-12-05T20:29:10.888Z,32.30
2022-12-05T20:31:41.736Z,30.98
2022-12-05T20:34:13.438Z,29.20
2022-12-05T20:36:45.177Z,31.50
2022-12-05T20:39:16.422Z,32.08
2022-12-05T20:42:10.602Z,31.42
2022-12-05T20:44:38.598Z,32.20
2022-12-05T20:47:05.639Z,34.80
2022-12-05T20:49:39.425Z,32.03
2022-12-05T20:52:10.568Z,31.63
2022-12-05T20:54:37.868Z,32.95
2022-12-05T20:57:05.005Z,32.40
2022-12-05T20:59:33.343Z,33.05
2022-12-05T21:02:00.380Z,32.05
2022-12-05T21:04:30.366Z,32.38
2022-12-05T21:06:59.570Z,34.40
2022-12-05T21:09:30.295Z,35.03
2022-12-05T21:11:59.262Z,33.10
2022-12-05T21:14:27.145Z,34.70
2022-12-05T21:16:54.931Z,33.03
2022-12-05T21:19:26.018Z,34.28
2022-12-05T21:21:54.941Z,32.58
2022-12-05T21:24:26.337Z,32.80
2022-12-05T21:26:54.298Z,30.38
2022-12-05T21:29:33.717Z,32.63
2022-12-05T21:32:01.193Z,31.35
2022-12-05T21:34:31.986Z,31.10
2022-12-05T21:37:01.241Z,27.35
2022-12-05T21:39:28.543Z,27.23
2022-12-05T21:41:56.484Z,25.92
2022-12-05T21:44:23.665Z,27.98
2022-12-05T21:46:53.404Z,23.20
2022-12-05T21:49:32.445Z,21.77
2022-12-05T21:52:25.188Z,26.60
2022-12-05T21:58:11.414Z,26.40
2022-12-05T22:00:40.561Z,19.73
2022-12-05T22:03:07.973Z,22.17
2022-12-05T22:05:38.479Z,20.52
2022-12-05T22:08:06.956Z,25.83
2022-12-05T22:10:35.460Z,28.50
2022-12-05T22:13:05.580Z,26.63
2022-12-05T22:15:33.655Z,25.15
2022-12-05T22:18:05.633Z,23.77
2022-12-05T22:20:37.025Z,24.38
2022-12-05T22:23:19.195Z,21.15
2022-12-05T22:26:03.846Z,20.50
2022-12-05T22:28:38.193Z,21.08
2022-12-05T22:31:08.820Z,20.67
2022-12-05T22:33:37.013Z,20.45
2022-12-05T22:36:09.411Z,20.20
2022-12-05T22:38:38.822Z,21.73
2022-12-05T22:41:16.426Z,21.20
2022-12-05T22:43:45.214Z,21.08
2022-12-05T22:46:18.245Z,20.65
2022-12-05T22:48:49.906Z,19.55
2022-12-05T22:51:19.769Z,18.65
2022-12-05T22:53:54.056Z,18.58
2022-12-05T22:56:31.244Z,16.77
2022-12-05T22:59:11.571Z,18.05
2022-12-05T23:01:54.186Z,17.40
2022-12-05T23:04:25.480Z,18.92
2022-12-05T23:06:59.341Z,17.60
2022-12-05T23:09:30.183Z,19.15
2022-12-05T23:11:59.424Z,18.60
2022-12-05T23:14:27.011Z,18.92
2022-12-05T23:17:12.607Z,18.30
2022-12-05T23:19:42.502Z,18.23
2022-12-05T23:22:10.192Z,18.08
2022-12-05T23:24:38.194Z,17.85
2022-12-05T23:27:09.483Z,14.48
2022-12-05T23:29:36.546Z,18.13
2022-12-05T23:32:05.616Z,17.45
2022-12-05T23:34:35.735Z,18.13
2022-12-05T23:37:04.371Z,16.73
2022-12-05T23:39:33.605Z,16.42
2022-12-05T23:42:02.932Z,16.48
2022-12-05T23:44:32.006Z,16.60
2022-12-05T23:46:59.172Z,17.33
2022-12-05T23:49:26.258Z,17.60
2022-12-05T23:51:53.480Z,17.75
2022-12-05T23:54:21.848Z,18.48
2022-12-05T23:56:48.854Z,17.48
2022-12-05T23:59:16.207Z,17.88
